Norasia Integra — A8DZ2 — position and weather

sailwx.info

Track history (hours):
 
Tides and Currents Weather Stations Pressure Air Temp Water Temp Dewpoint Dewpoint Depression Visibility Wind Speed Wind Dir Waves Ship Positions

Norasia Integra

Last reported at 2017-Nov-18 11:52 UTC. Time now 2017-Nov-18 21:29 UTC.
Position N 34°51' E 139°36'.

Length 222 m; draft 10 m.

Type: Ship. MMSI: 636013289.

Date/timePositionNaut miles runAvg speedWind from/ knotsBaromVisibWave heightAir tempDewpointWater temp
2017-Nov-18 11:52N 34°51' E 139°36'720.3
2017-Nov-18 11:30N 34°58' E 139°40'918.3
2017-Nov-18 11:00N 35°06' E 139°44'713.6
2017-Nov-18 10:30N 35°13' E 139°46'612.8
2017-Nov-18 10:00N 35°19' E 139°43'713.6
2017-Nov-18 09:30N 35°26' E 139°44'3 5.3
2017-Nov-18 09:00N 35°28' E 139°42'0 0.1
2017-Nov-18 08:30N 35°28' E 139°42'0 0.0
2017-Nov-18 08:00N 35°28' E 139°42'0 0.0
2017-Nov-18 07:30N 35°28' E 139°42'0 0.0
2017-Nov-18 07:00N 35°28' E 139°42'0 0.0
2017-Nov-18 06:30N 35°28' E 139°42'0 0.0
2017-Nov-18 06:00N 35°28' E 139°42'0 0.0
2017-Nov-18 05:30N 35°28' E 139°42'0 0.0
2017-Nov-18 05:00N 35°28' E 139°42'0 0.0
2017-Nov-18 04:30N 35°28' E 139°42'0 0.0
2017-Nov-18 04:00N 35°28' E 139°42'0 0.0
2017-Nov-18 03:30N 35°28' E 139°42'0 0.0
2017-Nov-18 03:00N 35°28' E 139°42'0 0.0
2017-Nov-18 02:30N 35°28' E 139°42'0 0.0
2017-Nov-18 02:00N 35°28' E 139°42'0 0.0
2017-Nov-18 01:30N 35°28' E 139°42'0 0.0
2017-Nov-18 01:00N 35°28' E 139°42'0 0.0
2017-Nov-18 00:30N 35°28' E 139°42'0 0.0
2017-Nov-18 00:00N 35°28' E 139°42'0 0.0
2017-Nov-17 23:30N 35°28' E 139°42'1 1.3
2017-Nov-17 23:00N 35°28' E 139°42'4 7.4
2017-Nov-17 22:30N 35°27' E 139°47'510.3
2017-Nov-17 22:00N 35°30' E 139°52'611.9
2017-Nov-17 21:30N 35°33' E 139°59'1 0.1
2017-Nov-17 08:50N 35°34' E 140°00'513.3
2017-Nov-17 08:29N 35°33' E 139°54'613.1
2017-Nov-17 08:00N 35°35' E 139°47'1 1.0
2017-Nov-17 06:53N 35°36' E 139°47'0 0.0
2017-Nov-17 05:54N 35°36' E 139°47'0 0.0
2017-Nov-17 04:46N 35°36' E 139°47'0 0.0
2017-Nov-17 04:28N 35°36' E 139°47'0 0.0
2017-Nov-17 03:55N 35°36' E 139°47'0 0.0
2017-Nov-17 03:30N 35°36' E 139°47'0 0.0
2017-Nov-17 03:00N 35°36' E 139°47'0 0.0
2017-Nov-17 02:27N 35°36' E 139°47'0 0.0
2017-Nov-17 02:00N 35°36' E 139°47'0 0.0
2017-Nov-17 01:30N 35°36' E 139°47'0 0.0
2017-Nov-17 00:58N 35°36' E 139°47'0 0.0
2017-Nov-17 00:30N 35°36' E 139°47'0 0.0
2017-Nov-16 23:56N 35°36' E 139°47'0 0.0
2017-Nov-16 23:30N 35°36' E 139°47'0 0.0
2017-Nov-16 22:59N 35°36' E 139°47'0 0.0
2017-Nov-16 22:29N 35°36' E 139°47'0 0.0
2017-Nov-16 21:59N 35°36' E 139°47'0 0.0
2017-Nov-16 21:27N 35°36' E 139°47'0 0.0
2017-Nov-16 20:59N 35°36' E 139°47'0 0.0
2017-Nov-16 20:30N 35°36' E 139°47'0 0.0
2017-Nov-16 20:00N 35°36' E 139°47'0 0.0
2017-Nov-16 19:30N 35°36' E 139°47'0 0.0
2017-Nov-16 19:00N 35°36' E 139°47'0 0.0
2017-Nov-16 18:30N 35°36' E 139°47'0 0.0
2017-Nov-16 17:57N 35°36' E 139°47'0 0.0
2017-Nov-16 17:30N 35°36' E 139°47'0 0.0
2017-Nov-16 17:00N 35°36' E 139°47'0 0.0
2017-Nov-16 16:30N 35°36' E 139°47'0 0.0
2017-Nov-16 16:00N 35°36' E 139°47'0 0.0
2017-Nov-16 15:30N 35°36' E 139°47'0 0.0
2017-Nov-16 15:00N 35°36' E 139°47'0 0.0
2017-Nov-16 14:30N 35°36' E 139°47'0 0.0
2017-Nov-16 14:00N 35°36' E 139°47'0 0.0
2017-Nov-16 13:30N 35°36' E 139°47'0 0.0
2017-Nov-16 13:00N 35°36' E 139°47'0 0.6
2017-Nov-16 12:29N 35°36' E 139°47'4 9.0
2017-Nov-16 12:00N 35°33' E 139°51'611.7
2017-Nov-16 11:30N 35°27' E 139°50'612.8
2017-Nov-16 11:00N 35°22' E 139°45'510.7
2017-Nov-16 10:30N 35°17' E 139°46'611.4
2017-Nov-16 10:00N 35°11' E 139°47'510.6
2017-Nov-16 09:30N 35°06' E 139°46'612.2
2017-Nov-16 09:00N 35°01' E 139°41'815.8
2017-Nov-16 08:30N 34°57' E 139°33'919.0
2017-Nov-16 08:00N 34°51' E 139°24'  
2017-Nov-12 18:00N 24°22' E 118°46'1020.7
2017-Nov-12 17:30N 24°18' E 118°36'1020.0
2017-Nov-12 17:00N 24°15' E 118°25'917.2
2017-Nov-12 16:30N 24°15' E 118°15'815.7
2017-Nov-12 16:00N 24°21' E 118°10'611.5
2017-Nov-12 15:30N 24°25' E 118°05'510.2
2017-Nov-12 15:00N 24°30' E 118°04'1 2.2
2017-Nov-12 14:31N 24°31' E 118°05'0 0.0
2017-Nov-12 14:00N 24°31' E 118°05'0 0.0
2017-Nov-12 13:30N 24°31' E 118°05'0 0.0
2017-Nov-12 13:00N 24°31' E 118°05'0 0.0
2017-Nov-12 12:30N 24°31' E 118°05'0 0.0
2017-Nov-12 12:00N 24°31' E 118°05'0 0.0
2017-Nov-12 11:30N 24°31' E 118°05'0 0.0
2017-Nov-12 11:00N 24°31' E 118°05'0 0.0
2017-Nov-12 10:30N 24°31' E 118°05'0 0.0
2017-Nov-12 10:00N 24°31' E 118°05'0 0.0
2017-Nov-12 09:30N 24°31' E 118°05'0 0.0
2017-Nov-12 09:00N 24°31' E 118°05'0 0.0
2017-Nov-12 08:30N 24°31' E 118°05'0 0.0
2017-Nov-12 08:00N 24°31' E 118°05'0 0.0
2017-Nov-12 07:30N 24°31' E 118°05'0 0.0
2017-Nov-12 07:00N 24°31' E 118°05'0 0.0
2017-Nov-12 06:31N 24°31' E 118°05'0 0.0
2017-Nov-12 06:00N 24°31' E 118°05'0 0.0
2017-Nov-12 05:30N 24°31' E 118°05'0 0.0
2017-Nov-12 05:01N 24°31' E 118°05'0 0.0
2017-Nov-12 04:30N 24°31' E 118°05'0 0.0
2017-Nov-12 04:00N 24°31' E 118°05'0 0.0
2017-Nov-12 03:30N 24°31' E 118°05'0 0.8
2017-Nov-12 03:00N 24°30' E 118°04'4 8.2
2017-Nov-12 02:30N 24°27' E 118°03'611.3
2017-Nov-12 02:00N 24°23' E 118°08'510.3
2017-Nov-12 01:30N 24°19' E 118°11'713.8
2017-Nov-12 01:00N 24°14' E 118°16'715.0
2017-Nov-12 00:30N 24°07' E 118°15'918.4
2017-Nov-12 00:00N 23°58' E 118°11'17519.2
2017-Nov-11 14:54N 22°23' E 115°31'919.0
2017-Nov-11 14:24N 22°20' E 115°21'819.0
2017-Nov-11 13:57N 22°18' E 115°12'919.3
2017-Nov-11 13:30N 22°16' E 115°03'1019.6
2017-Nov-11 13:00N 22°14' E 114°53'1020.1
2017-Nov-11 12:30N 22°11' E 114°42'1019.9
2017-Nov-11 12:00N 22°09' E 114°32'918.7
2017-Nov-11 11:30N 22°07' E 114°22'2311.1
2017-Nov-11 09:24N 22°21' E 114°01'513.5
2017-Nov-11 09:00N 22°21' E 113°56'5 9.3
2017-Nov-11 08:30N 22°25' E 113°53'3 5.2
2017-Nov-11 08:00N 22°28' E 113°54'0 0.1
2017-Nov-11 07:30N 22°28' E 113°54'0 0.0
2017-Nov-11 07:00N 22°28' E 113°54'0 0.0
2017-Nov-11 06:30N 22°28' E 113°54'0 0.0
2017-Nov-11 06:00N 22°28' E 113°54'0 0.0
2017-Nov-11 05:30N 22°28' E 113°54'0 0.0
2017-Nov-11 05:00N 22°28' E 113°54'0 0.0
2017-Nov-11 04:30N 22°28' E 113°54'0 0.0
2017-Nov-11 04:00N 22°28' E 113°54'0 0.0
2017-Nov-11 03:30N 22°28' E 113°54'0 0.0
2017-Nov-11 03:00N 22°28' E 113°54'0 0.0
2017-Nov-11 02:30N 22°28' E 113°54'0 0.0
2017-Nov-11 02:00N 22°28' E 113°54'0 0.0
2017-Nov-11 01:30N 22°28' E 113°54'0 0.0
2017-Nov-11 01:00N 22°28' E 113°54'0 0.0
2017-Nov-11 00:30N 22°28' E 113°54'0 0.0
2017-Nov-11 00:00N 22°28' E 113°54'0 0.0
2017-Nov-10 23:30N 22°28' E 113°54'0 0.0
2017-Nov-10 23:00N 22°28' E 113°54'0 0.0
2017-Nov-10 22:30N 22°28' E 113°54'0 0.0
2017-Nov-10 22:00N 22°28' E 113°54'0 0.0
2017-Nov-10 21:30N 22°28' E 113°54'0 0.0
2017-Nov-10 21:00N 22°28' E 113°54'0 0.0
2017-Nov-10 20:30N 22°28' E 113°54'0 0.0
2017-Nov-10 20:00N 22°28' E 113°54'0 0.0
2017-Nov-10 19:30N 22°28' E 113°54'0 0.0
2017-Nov-10 19:00N 22°28' E 113°54'0 0.0
2017-Nov-10 18:30N 22°28' E 113°54'0 0.0
2017-Nov-10 18:00N 22°28' E 113°54'2 3.6
2017-Nov-10 17:30N 22°26' E 113°53'3 6.6
2017-Nov-10 17:00N 22°23' E 113°54'713.7
2017-Nov-10 16:30N 22°21' E 114°01'7 7.5
2017-Nov-10 15:33N 22°16' E 114°07'1 8.8
2017-Nov-10 15:29N 22°16' E 114°07'5 9.4
2017-Nov-10 15:00N 22°12' E 114°11'4 7.8
2017-Nov-10 14:29N 22°09' E 114°13'5 8.5
2017-Nov-10 13:52N 22°08' E 114°19'3 9.2
2017-Nov-10 13:30N 22°10' E 114°22'1 1.3
2017-Nov-10 13:00N 22°10' E 114°22'0 0.9
2017-Nov-10 12:30N 22°10' E 114°23'3 6.0
2017-Nov-10 12:00N 22°07' E 114°21'18 9.3
2017-Nov-10 10:04N 22°19' E 114°07'1 6.3
2017-Nov-10 09:56N 22°20' E 114°07'5 0.3
2017-Nov-09 17:17N 22°15' E 114°07'611.5
2017-Nov-09 16:48N 22°12' E 114°12'311.7
2017-Nov-09 16:30N 22°09' E 114°14'610.5
2017-Nov-09 15:55N 22°08' E 114°21'613.0
2017-Nov-09 15:30N 22°08' E 114°27'714.4
2017-Nov-09 15:01N 22°08' E 114°34'714.7
2017-Nov-09 14:30N 22°09' E 114°42'815.9
2017-Nov-09 14:00N 22°09' E 114°51'28320.6
2017-Nov-09 00:16N 22°31' E 119°56'1618.4
2017-Nov-08 23:24N 22°33' E 120°13'5 0.4
2017-Nov-08 12:37N 22°33' E 120°18'1 6.4
2017-Nov-08 12:30N 22°33' E 120°18'2 4.1
2017-Nov-08 12:00N 22°32' E 120°16'  
Track history (hours):
 
Tides and Currents Weather Stations Pressure Air Temp Water Temp Dewpoint Dewpoint Depression Visibility Wind Speed Wind Dir Waves Ship Positions

Norasia Integra

Last reported at 2017-Nov-18 11:52 UTC. Time now 2017-Nov-18 21:29 UTC.
Position N 34°51' E 139°36'.

Length 222 m; draft 10 m.

Type: Ship. MMSI: 636013289.

Date/timePositionNaut miles runAvg speedWind from/ knotsBaromVisibWave heightAir tempDewpointWater temp
2017-Nov-18 11:52N 34°51' E 139°36'720.3
2017-Nov-18 11:30N 34°58' E 139°40'918.3
2017-Nov-18 11:00N 35°06' E 139°44'713.6
2017-Nov-18 10:30N 35°13' E 139°46'612.8
2017-Nov-18 10:00N 35°19' E 139°43'713.6
2017-Nov-18 09:30N 35°26' E 139°44'3 5.3
2017-Nov-18 09:00N 35°28' E 139°42'0 0.1
2017-Nov-18 08:30N 35°28' E 139°42'0 0.0
2017-Nov-18 08:00N 35°28' E 139°42'0 0.0
2017-Nov-18 07:30N 35°28' E 139°42'0 0.0
2017-Nov-18 07:00N 35°28' E 139°42'0 0.0
2017-Nov-18 06:30N 35°28' E 139°42'0 0.0
2017-Nov-18 06:00N 35°28' E 139°42'0 0.0
2017-Nov-18 05:30N 35°28' E 139°42'0 0.0
2017-Nov-18 05:00N 35°28' E 139°42'0 0.0
2017-Nov-18 04:30N 35°28' E 139°42'0 0.0
2017-Nov-18 04:00N 35°28' E 139°42'0 0.0
2017-Nov-18 03:30N 35°28' E 139°42'0 0.0
2017-Nov-18 03:00N 35°28' E 139°42'0 0.0
2017-Nov-18 02:30N 35°28' E 139°42'0 0.0
2017-Nov-18 02:00N 35°28' E 139°42'0 0.0
2017-Nov-18 01:30N 35°28' E 139°42'0 0.0
2017-Nov-18 01:00N 35°28' E 139°42'0 0.0
2017-Nov-18 00:30N 35°28' E 139°42'0 0.0
2017-Nov-18 00:00N 35°28' E 139°42'0 0.0
2017-Nov-17 23:30N 35°28' E 139°42'1 1.3
2017-Nov-17 23:00N 35°28' E 139°42'4 7.4
2017-Nov-17 22:30N 35°27' E 139°47'510.3
2017-Nov-17 22:00N 35°30' E 139°52'611.9
2017-Nov-17 21:30N 35°33' E 139°59'1 0.1
2017-Nov-17 08:50N 35°34' E 140°00'513.3
2017-Nov-17 08:29N 35°33' E 139°54'613.1
2017-Nov-17 08:00N 35°35' E 139°47'1 1.0
2017-Nov-17 06:53N 35°36' E 139°47'0 0.0
2017-Nov-17 05:54N 35°36' E 139°47'0 0.0
2017-Nov-17 04:46N 35°36' E 139°47'0 0.0
2017-Nov-17 04:28N 35°36' E 139°47'0 0.0
2017-Nov-17 03:55N 35°36' E 139°47'0 0.0
2017-Nov-17 03:30N 35°36' E 139°47'0 0.0
2017-Nov-17 03:00N 35°36' E 139°47'0 0.0
2017-Nov-17 02:27N 35°36' E 139°47'0 0.0
2017-Nov-17 02:00N 35°36' E 139°47'0 0.0
2017-Nov-17 01:30N 35°36' E 139°47'0 0.0
2017-Nov-17 00:58N 35°36' E 139°47'0 0.0
2017-Nov-17 00:30N 35°36' E 139°47'0 0.0
2017-Nov-16 23:56N 35°36' E 139°47'0 0.0
2017-Nov-16 23:30N 35°36' E 139°47'0 0.0
2017-Nov-16 22:59N 35°36' E 139°47'0 0.0
2017-Nov-16 22:29N 35°36' E 139°47'0 0.0
2017-Nov-16 21:59N 35°36' E 139°47'0 0.0
2017-Nov-16 21:27N 35°36' E 139°47'0 0.0
2017-Nov-16 20:59N 35°36' E 139°47'0 0.0
2017-Nov-16 20:30N 35°36' E 139°47'0 0.0
2017-Nov-16 20:00N 35°36' E 139°47'0 0.0
2017-Nov-16 19:30N 35°36' E 139°47'0 0.0
2017-Nov-16 19:00N 35°36' E 139°47'0 0.0
2017-Nov-16 18:30N 35°36' E 139°47'0 0.0
2017-Nov-16 17:57N 35°36' E 139°47'0 0.0
2017-Nov-16 17:30N 35°36' E 139°47'0 0.0
2017-Nov-16 17:00N 35°36' E 139°47'0 0.0
2017-Nov-16 16:30N 35°36' E 139°47'0 0.0
2017-Nov-16 16:00N 35°36' E 139°47'0 0.0
2017-Nov-16 15:30N 35°36' E 139°47'0 0.0
2017-Nov-16 15:00N 35°36' E 139°47'0 0.0
2017-Nov-16 14:30N 35°36' E 139°47'0 0.0
2017-Nov-16 14:00N 35°36' E 139°47'0 0.0
2017-Nov-16 13:30N 35°36' E 139°47'0 0.0
2017-Nov-16 13:00N 35°36' E 139°47'0 0.6
2017-Nov-16 12:29N 35°36' E 139°47'4 9.0
2017-Nov-16 12:00N 35°33' E 139°51'611.7
2017-Nov-16 11:30N 35°27' E 139°50'612.8
2017-Nov-16 11:00N 35°22' E 139°45'510.7
2017-Nov-16 10:30N 35°17' E 139°46'611.4
2017-Nov-16 10:00N 35°11' E 139°47'510.6
2017-Nov-16 09:30N 35°06' E 139°46'612.2
2017-Nov-16 09:00N 35°01' E 139°41'815.8
2017-Nov-16 08:30N 34°57' E 139°33'919.0
2017-Nov-16 08:00N 34°51' E 139°24'  
2017-Nov-12 18:00N 24°22' E 118°46'1020.7
2017-Nov-12 17:30N 24°18' E 118°36'1020.0
2017-Nov-12 17:00N 24°15' E 118°25'917.2
2017-Nov-12 16:30N 24°15' E 118°15'815.7
2017-Nov-12 16:00N 24°21' E 118°10'611.5
2017-Nov-12 15:30N 24°25' E 118°05'510.2
2017-Nov-12 15:00N 24°30' E 118°04'1 2.2
2017-Nov-12 14:31N 24°31' E 118°05'0 0.0
2017-Nov-12 14:00N 24°31' E 118°05'0 0.0
2017-Nov-12 13:30N 24°31' E 118°05'0 0.0
2017-Nov-12 13:00N 24°31' E 118°05'0 0.0
2017-Nov-12 12:30N 24°31' E 118°05'0 0.0
2017-Nov-12 12:00N 24°31' E 118°05'0 0.0
2017-Nov-12 11:30N 24°31' E 118°05'0 0.0
2017-Nov-12 11:00N 24°31' E 118°05'0 0.0
2017-Nov-12 10:30N 24°31' E 118°05'0 0.0
2017-Nov-12 10:00N 24°31' E 118°05'0 0.0
2017-Nov-12 09:30N 24°31' E 118°05'0 0.0
2017-Nov-12 09:00N 24°31' E 118°05'0 0.0
2017-Nov-12 08:30N 24°31' E 118°05'0 0.0
2017-Nov-12 08:00N 24°31' E 118°05'0 0.0
2017-Nov-12 07:30N 24°31' E 118°05'0 0.0
2017-Nov-12 07:00N 24°31' E 118°05'0 0.0
2017-Nov-12 06:31N 24°31' E 118°05'0 0.0
2017-Nov-12 06:00N 24°31' E 118°05'0 0.0
2017-Nov-12 05:30N 24°31' E 118°05'0 0.0
2017-Nov-12 05:01N 24°31' E 118°05'0 0.0
2017-Nov-12 04:30N 24°31' E 118°05'0 0.0
2017-Nov-12 04:00N 24°31' E 118°05'0 0.0
2017-Nov-12 03:30N 24°31' E 118°05'0 0.8
2017-Nov-12 03:00N 24°30' E 118°04'4 8.2
2017-Nov-12 02:30N 24°27' E 118°03'611.3
2017-Nov-12 02:00N 24°23' E 118°08'510.3
2017-Nov-12 01:30N 24°19' E 118°11'713.8
2017-Nov-12 01:00N 24°14' E 118°16'715.0
2017-Nov-12 00:30N 24°07' E 118°15'918.4
2017-Nov-12 00:00N 23°58' E 118°11'17519.2
2017-Nov-11 14:54N 22°23' E 115°31'919.0
2017-Nov-11 14:24N 22°20' E 115°21'819.0
2017-Nov-11 13:57N 22°18' E 115°12'919.3
2017-Nov-11 13:30N 22°16' E 115°03'1019.6
2017-Nov-11 13:00N 22°14' E 114°53'1020.1
2017-Nov-11 12:30N 22°11' E 114°42'1019.9
2017-Nov-11 12:00N 22°09' E 114°32'918.7
2017-Nov-11 11:30N 22°07' E 114°22'2311.1
2017-Nov-11 09:24N 22°21' E 114°01'513.5
2017-Nov-11 09:00N 22°21' E 113°56'5 9.3
2017-Nov-11 08:30N 22°25' E 113°53'3 5.2
2017-Nov-11 08:00N 22°28' E 113°54'0 0.1
2017-Nov-11 07:30N 22°28' E 113°54'0 0.0
2017-Nov-11 07:00N 22°28' E 113°54'0 0.0
2017-Nov-11 06:30N 22°28' E 113°54'0 0.0
2017-Nov-11 06:00N 22°28' E 113°54'0 0.0
2017-Nov-11 05:30N 22°28' E 113°54'0 0.0
2017-Nov-11 05:00N 22°28' E 113°54'0 0.0
2017-Nov-11 04:30N 22°28' E 113°54'0 0.0
2017-Nov-11 04:00N 22°28' E 113°54'0 0.0
2017-Nov-11 03:30N 22°28' E 113°54'0 0.0
2017-Nov-11 03:00N 22°28' E 113°54'0 0.0
2017-Nov-11 02:30N 22°28' E 113°54'0 0.0
2017-Nov-11 02:00N 22°28' E 113°54'0 0.0
2017-Nov-11 01:30N 22°28' E 113°54'0 0.0
2017-Nov-11 01:00N 22°28' E 113°54'0 0.0
2017-Nov-11 00:30N 22°28' E 113°54'0 0.0
2017-Nov-11 00:00N 22°28' E 113°54'0 0.0
2017-Nov-10 23:30N 22°28' E 113°54'0 0.0
2017-Nov-10 23:00N 22°28' E 113°54'0 0.0
2017-Nov-10 22:30N 22°28' E 113°54'0 0.0
2017-Nov-10 22:00N 22°28' E 113°54'0 0.0
2017-Nov-10 21:30N 22°28' E 113°54'0 0.0
2017-Nov-10 21:00N 22°28' E 113°54'0 0.0
2017-Nov-10 20:30N 22°28' E 113°54'0 0.0
2017-Nov-10 20:00N 22°28' E 113°54'0 0.0
2017-Nov-10 19:30N 22°28' E 113°54'0 0.0
2017-Nov-10 19:00N 22°28' E 113°54'0 0.0
2017-Nov-10 18:30N 22°28' E 113°54'0 0.0
2017-Nov-10 18:00N 22°28' E 113°54'2 3.6
2017-Nov-10 17:30N 22°26' E 113°53'3 6.6
2017-Nov-10 17:00N 22°23' E 113°54'713.7
2017-Nov-10 16:30N 22°21' E 114°01'7 7.5
2017-Nov-10 15:33N 22°16' E 114°07'1 8.8
2017-Nov-10 15:29N 22°16' E 114°07'5 9.4
2017-Nov-10 15:00N 22°12' E 114°11'4 7.8
2017-Nov-10 14:29N 22°09' E 114°13'5 8.5
2017-Nov-10 13:52N 22°08' E 114°19'3 9.2
2017-Nov-10 13:30N 22°10' E 114°22'1 1.3
2017-Nov-10 13:00N 22°10' E 114°22'0 0.9
2017-Nov-10 12:30N 22°10' E 114°23'3 6.0
2017-Nov-10 12:00N 22°07' E 114°21'18 9.3
2017-Nov-10 10:04N 22°19' E 114°07'1 6.3
2017-Nov-10 09:56N 22°20' E 114°07'5 0.3
2017-Nov-09 17:17N 22°15' E 114°07'611.5
2017-Nov-09 16:48N 22°12' E 114°12'311.7
2017-Nov-09 16:30N 22°09' E 114°14'610.5
2017-Nov-09 15:55N 22°08' E 114°21'613.0
2017-Nov-09 15:30N 22°08' E 114°27'714.4
2017-Nov-09 15:01N 22°08' E 114°34'714.7
2017-Nov-09 14:30N 22°09' E 114°42'815.9
2017-Nov-09 14:00N 22°09' E 114°51'28320.6
2017-Nov-09 00:16N 22°31' E 119°56'1618.4
2017-Nov-08 23:24N 22°33' E 120°13'5 0.4
2017-Nov-08 12:37N 22°33' E 120°18'1 6.4
2017-Nov-08 12:30N 22°33' E 120°18'2 4.1
2017-Nov-08 12:00N 22°32' E 120°16'  

Dump ship's entire track history